Time;durP1;ratioP1;P1;durP2;ratioP2;P2;SDS_P1;SDS_P2;PMS_P1;PMS_P2;Temp;Humidity;BMP_temperature;BMP_pressure;BME280_temperature;BME280_humidity;BME280_pressure;Samples;Min_cycle;Max_cycle;Signal;HPM_P1;HPM_P2
2023/03/01 00:02:09;;;;;;;59.55;24.38;;;;;;;;;;12716786;19;2005305;-69
2023/03/01 00:07:14;;;;;;;62.17;25.10;;;;;;;;;;12817888;19;20298;-68
2023/03/01 00:23:43;;;;;;;68.40;25.25;;;;;;;;;;12817037;19;20068;-68
2023/03/01 00:34:13;;;;;;;69.93;25.00;;;;;;;;;;12816936;19;20036;-69
2023/03/01 00:39:36;;;;;;;63.03;24.08;;;;;;;;;;12822021;19;20889;-69
2023/03/01 00:56:37;;;;;;;57.78;23.65;;;;;;;;;;12821912;19;20014;-69
2023/03/01 01:01:46;;;;;;;54.95;20.08;;;;;;;;;;12824317;19;20372;-68
2023/03/01 01:06:47;;;;;;;54.10;21.63;;;;;;;;;;12816661;19;20051;-68
2023/03/01 01:11:58;;;;;;;50.85;22.58;;;;;;;;;;12815106;19;20007;-68
2023/03/01 01:16:47;;;;;;;67.93;25.60;;;;;;;;;;12815031;19;20432;-68
2023/03/01 01:27:34;;;;;;;59.75;24.40;;;;;;;;;;12814238;19;20010;-69
2023/03/01 01:32:59;;;;;;;48.50;19.90;;;;;;;;;;12814347;19;20337;-69
2023/03/01 01:38:39;;;;;;;42.85;18.65;;;;;;;;;;12714755;19;2004878;-68
2023/03/01 01:43:36;;;;;;;47.72;18.42;;;;;;;;;;12813021;19;20303;-69
2023/03/01 02:00:44;;;;;;;51.22;17.38;;;;;;;;;;12814374;19;20271;-68
2023/03/01 02:16:54;;;;;;;79.53;23.42;;;;;;;;;;12811753;19;20510;-69
2023/03/01 02:22:49;;;;;;;65.07;22.13;;;;;;;;;;12811203;19;20348;-68
2023/03/01 02:27:54;;;;;;;55.33;18.35;;;;;;;;;;12817038;19;20457;-68
2023/03/01 02:43:12;;;;;;;41.92;16.13;;;;;;;;;;12821597;19;20379;-68
2023/03/01 02:54:01;;;;;;;51.50;18.20;;;;;;;;;;12827973;19;20354;-69
2023/03/01 02:58:51;;;;;;;52.00;17.42;;;;;;;;;;12832008;19;20429;-69
2023/03/01 03:03:32;;;;;;;40.97;16.20;;;;;;;;;;12829958;19;20431;-68
2023/03/01 03:13:36;;;;;;;31.10;12.85;;;;;;;;;;12820988;19;20025;-68
2023/03/01 03:18:31;;;;;;;32.13;14.02;;;;;;;;;;12820667;19;20383;-68
2023/03/01 03:28:39;;;;;;;35.92;16.17;;;;;;;;;;12822192;19;20395;-68
2023/03/01 03:33:13;;;;;;;43.30;18.05;;;;;;;;;;12820369;19;20714;-68
2023/03/01 03:44:01;;;;;;;44.65;16.88;;;;;;;;;;12825317;19;20010;-68
2023/03/01 03:48:43;;;;;;;38.63;16.60;;;;;;;;;;12827153;19;20459;-68
2023/03/01 03:54:05;;;;;;;40.85;16.17;;;;;;;;;;12826972;19;20489;-68
2023/03/01 04:04:52;;;;;;;42.03;17.67;;;;;;;;;;12825378;19;20010;-68
2023/03/01 04:09:14;;;;;;;43.03;17.50;;;;;;;;;;12826586;19;20470;-68
2023/03/01 04:14:05;;;;;;;42.70;16.48;;;;;;;;;;12827443;19;20485;-68
2023/03/01 04:19:38;;;;;;;36.60;16.77;;;;;;;;;;12817552;19;20390;-69
2023/03/01 04:24:10;;;;;;;42.37;18.50;;;;;;;;;;12818264;19;20438;-68
2023/03/01 04:29:42;;;;;;;40.33;15.85;;;;;;;;;;12827621;19;20302;-69
2023/03/01 04:35:38;;;;;;;43.63;18.00;;;;;;;;;;12817083;19;20361;-69
2023/03/01 04:40:35;;;;;;;46.58;19.75;;;;;;;;;;12816826;19;20371;-70
2023/03/01 04:56:46;;;;;;;40.33;18.00;;;;;;;;;;12813727;19;20368;-68
2023/03/01 05:08:17;;;;;;;55.05;18.23;;;;;;;;;;12819033;19;20395;-69
2023/03/01 05:13:06;;;;;;;40.47;17.55;;;;;;;;;;12823187;19;20024;-69
2023/03/01 05:23:43;;;;;;;37.90;16.92;;;;;;;;;;12821123;19;20342;-68
2023/03/01 05:28:41;;;;;;;34.90;16.05;;;;;;;;;;12814203;19;20323;-68
2023/03/01 05:39:36;;;;;;;38.53;13.98;;;;;;;;;;12820563;19;20306;-68
2023/03/01 05:44:06;;;;;;;32.45;14.27;;;;;;;;;;12815973;19;20003;-68
2023/03/01 05:49:37;;;;;;;32.90;16.10;;;;;;;;;;12820812;19;20373;-69
2023/03/01 05:54:47;;;;;;;32.17;15.82;;;;;;;;;;12803565;19;20441;-68
2023/03/01 05:59:32;;;;;;;33.03;15.55;;;;;;;;;;12813742;19;20531;-69
2023/03/01 06:04:45;;;;;;;47.03;17.35;;;;;;;;;;12821989;19;20347;-69
2023/03/01 06:14:57;;;;;;;35.30;16.48;;;;;;;;;;12819177;19;20464;-68
2023/03/01 06:25:40;;;;;;;38.15;16.50;;;;;;;;;;12818712;19;20616;-68
2023/03/01 06:30:36;;;;;;;39.85;17.05;;;;;;;;;;12819560;19;20429;-69
2023/03/01 06:35:01;;;;;;;36.42;14.85;;;;;;;;;;12818688;19;20006;-67
2023/03/01 06:39:47;;;;;;;32.00;15.30;;;;;;;;;;12820075;19;20367;-68
2023/03/01 06:45:35;;;;;;;40.08;16.50;;;;;;;;;;12810321;19;20415;-68
2023/03/01 06:50:15;;;;;;;31.95;14.27;;;;;;;;;;12809307;19;20006;-68
2023/03/01 07:01:39;;;;;;;43.30;20.13;;;;;;;;;;12707214;19;2005020;-68
2023/03/01 07:06:43;;;;;;;59.05;23.75;;;;;;;;;;12816944;19;20383;-68
2023/03/01 07:11:25;;;;;;;68.50;29.40;;;;;;;;;;12816740;19;20363;-67
2023/03/01 07:16:08;;;;;;;64.57;27.40;;;;;;;;;;12810729;19;20003;-72
2023/03/01 07:20:50;;;;;;;66.32;26.92;;;;;;;;;;12812812;19;20282;-68
2023/03/01 07:25:50;;;;;;;90.55;33.88;;;;;;;;;;12810848;19;21085;-68
2023/03/01 07:30:32;;;;;;;60.95;23.20;;;;;;;;;;12818928;19;20007;-69
2023/03/01 07:40:51;;;;;;;39.92;17.52;;;;;;;;;;12825574;19;20016;-68
2023/03/01 07:45:40;;;;;;;124.90;51.47;;;;;;;;;;12828353;19;20384;-68
2023/03/01 07:50:09;;;;;;;64.18;28.65;;;;;;;;;;12826735;19;20425;-68
2023/03/01 07:54:45;;;;;;;58.08;24.85;;;;;;;;;;12827717;19;20349;-69
2023/03/01 07:59:40;;;;;;;48.47;20.77;;;;;;;;;;12819806;19;20417;-68
2023/03/01 08:04:41;;;;;;;36.72;17.95;;;;;;;;;;12817066;19;20541;-69
2023/03/01 08:09:08;;;;;;;51.45;22.35;;;;;;;;;;12819501;19;20326;-68
2023/03/01 08:19:43;;;;;;;45.00;20.73;;;;;;;;;;12819207;19;20464;-69
2023/03/01 08:24:36;;;;;;;38.13;17.65;;;;;;;;;;12818685;19;20396;-69
2023/03/01 08:35:41;;;;;;;26.58;13.27;;;;;;;;;;12815706;19;20433;-71
2023/03/01 08:45:17;;;;;;;26.85;10.88;;;;;;;;;;12822347;19;20417;-69
2023/03/01 08:50:42;;;;;;;24.58;10.75;;;;;;;;;;12826729;19;20481;-69
2023/03/01 08:55:44;;;;;;;24.83;11.13;;;;;;;;;;12823383;19;20026;-69
2023/03/01 09:00:36;;;;;;;21.08;9.77;;;;;;;;;;12824429;19;20325;-68
2023/03/01 09:12:01;;;;;;;19.42;8.98;;;;;;;;;;12813142;19;20011;-69
2023/03/01 09:16:35;;;;;;;17.77;8.50;;;;;;;;;;12815330;19;20342;-68
2023/03/01 09:21:14;;;;;;;17.10;6.60;;;;;;;;;;12821452;19;20363;-69
2023/03/01 09:26:46;;;;;;;13.85;7.22;;;;;;;;;;12815990;19;20339;-69
2023/03/01 09:31:35;;;;;;;17.70;7.83;;;;;;;;;;12821803;19;20873;-68
2023/03/01 09:36:34;;;;;;;13.43;6.45;;;;;;;;;;12819256;19;20425;-68
2023/03/01 09:41:59;;;;;;;13.30;6.15;;;;;;;;;;12820007;19;20446;-68
2023/03/01 09:47:49;;;;;;;9.15;4.80;;;;;;;;;;12718062;19;2004933;-69
2023/03/01 09:52:42;;;;;;;10.85;6.05;;;;;;;;;;12818087;19;20456;-69
2023/03/01 09:57:43;;;;;;;16.23;7.63;;;;;;;;;;12821843;19;20846;-68
2023/03/01 10:02:47;;;;;;;12.88;6.00;;;;;;;;;;12819665;19;20374;-68
2023/03/01 10:08:48;;;;;;;14.38;6.63;;;;;;;;;;12811952;19;20422;-68
2023/03/01 10:13:48;;;;;;;9.43;5.32;;;;;;;;;;12811694;19;20425;-68
2023/03/01 10:24:46;;;;;;;13.95;6.15;;;;;;;;;;12809562;19;20337;-68
2023/03/01 10:29:58;;;;;;;13.88;6.07;;;;;;;;;;12812257;19;20529;-70
2023/03/01 10:40:54;;;;;;;12.60;6.00;;;;;;;;;;12810561;19;20418;-68
2023/03/01 10:45:50;;;;;;;14.95;6.30;;;;;;;;;;12811047;19;20311;-69
2023/03/01 10:56:48;;;;;;;11.75;6.95;;;;;;;;;;12810125;19;20390;-69
2023/03/01 11:08:35;;;;;;;15.57;6.28;;;;;;;;;;12824573;19;20447;-69
2023/03/01 11:13:40;;;;;;;7.78;4.80;;;;;;;;;;12829015;19;20425;-68
2023/03/01 11:25:03;;;;;;;12.40;5.53;;;;;;;;;;12821194;19;20562;-69
2023/03/01 11:30:00;;;;;;;10.98;5.22;;;;;;;;;;12827387;19;20605;-69
2023/03/01 11:41:42;;;;;;;8.85;4.50;;;;;;;;;;12725251;19;2005033;-68
2023/03/01 11:46:32;;;;;;;9.65;5.00;;;;;;;;;;12826656;19;20429;-69
2023/03/01 11:58:38;;;;;;;10.75;5.15;;;;;;;;;;12826297;19;20302;-69
2023/03/01 12:03:59;;;;;;;10.35;5.00;;;;;;;;;;12826853;19;20484;-69
2023/03/01 12:08:49;;;;;;;10.00;4.50;;;;;;;;;;12825846;19;20493;-68
2023/03/01 12:19:51;;;;;;;8.38;3.85;;;;;;;;;;12825689;19;20468;-68
2023/03/01 12:24:50;;;;;;;8.20;5.38;;;;;;;;;;12826417;19;20445;-68
2023/03/01 12:30:09;;;;;;;6.65;3.75;;;;;;;;;;12825934;19;20023;-69
2023/03/01 12:35:15;;;;;;;7.43;4.10;;;;;;;;;;12824327;19;20056;-69
2023/03/01 12:40:34;;;;;;;4.57;3.03;;;;;;;;;;12826455;19;20305;-68
2023/03/01 12:51:44;;;;;;;20.85;10.55;;;;;;;;;;12715821;19;2004983;-68
2023/03/01 12:56:37;;;;;;;9.13;5.03;;;;;;;;;;12821516;19;20011;-69
2023/03/01 13:01:36;;;;;;;9.80;3.83;;;;;;;;;;12823233;19;20476;-68
2023/03/01 13:07:01;;;;;;;9.90;5.40;;;;;;;;;;12822518;19;20332;-68
2023/03/01 13:12:57;;;;;;;8.40;4.65;;;;;;;;;;12815602;19;20128;-69
2023/03/01 13:17:50;;;;;;;8.65;4.40;;;;;;;;;;12811890;19;20418;-68
2023/03/01 13:23:07;;;;;;;10.55;5.30;;;;;;;;;;12810681;19;20862;-68
2023/03/01 13:27:42;;;;;;;10.20;5.05;;;;;;;;;;12805154;19;20373;-68
2023/03/01 13:37:45;;;;;;;9.63;4.47;;;;;;;;;;12806111;19;21124;-69
2023/03/01 13:42:57;;;;;;;10.85;4.85;;;;;;;;;;12808907;19;20010;-68
2023/03/01 13:47:38;;;;;;;15.43;6.65;;;;;;;;;;12810320;19;20976;-68
2023/03/01 13:52:52;;;;;;;8.77;5.03;;;;;;;;;;12814353;19;20413;-70
2023/03/01 13:57:59;;;;;;;8.48;4.65;;;;;;;;;;12818028;19;20294;-68
2023/03/01 14:03:15;;;;;;;22.02;7.22;;;;;;;;;;12814416;19;20326;-68
2023/03/01 14:08:03;;;;;;;10.85;4.60;;;;;;;;;;12816975;19;20303;-68
2023/03/01 14:13:31;;;;;;;10.50;4.68;;;;;;;;;;12818573;19;20334;-69
2023/03/01 14:18:53;;;;;;;9.95;4.57;;;;;;;;;;12818567;19;20010;-68
2023/03/01 14:24:04;;;;;;;14.40;5.00;;;;;;;;;;12718587;19;2005116;-69
2023/03/01 14:28:51;;;;;;;15.85;6.47;;;;;;;;;;12820469;19;20354;-68
2023/03/01 14:33:41;;;;;;;10.60;5.15;;;;;;;;;;12819779;19;20456;-68
2023/03/01 14:38:46;;;;;;;10.73;4.95;;;;;;;;;;12818941;19;20359;-69
2023/03/01 14:49:44;;;;;;;15.63;6.82;;;;;;;;;;12831594;19;20303;-68
2023/03/01 14:54:47;;;;;;;16.05;6.63;;;;;;;;;;12830647;19;20437;-69
2023/03/01 14:59:11;;;;;;;13.85;5.22;;;;;;;;;;12830177;19;20402;-69
2023/03/01 15:09:44;;;;;;;26.35;10.45;;;;;;;;;;12823457;19;20034;-69
2023/03/01 15:14:42;;;;;;;30.58;10.50;;;;;;;;;;12830040;19;20520;-69
2023/03/01 15:26:00;;;;;;;20.00;10.02;;;;;;;;;;12828013;19;20440;-69
2023/03/01 15:30:37;;;;;;;18.83;8.13;;;;;;;;;;12828123;19;20015;-70
2023/03/01 15:35:50;;;;;;;16.58;8.32;;;;;;;;;;12827788;19;20407;-68
2023/03/01 15:41:05;;;;;;;19.92;8.68;;;;;;;;;;12827638;19;20342;-68
2023/03/01 15:51:37;;;;;;;11.20;6.63;;;;;;;;;;12818027;19;20314;-69
2023/03/01 15:57:16;;;;;;;12.75;6.20;;;;;;;;;;12820675;19;20340;-69
2023/03/01 16:03:13;;;;;;;9.98;5.20;;;;;;;;;;12817238;19;20634;-68
2023/03/01 16:07:49;;;;;;;9.98;4.50;;;;;;;;;;12817373;19;20541;-68
2023/03/01 16:12:32;;;;;;;9.10;5.32;;;;;;;;;;12817631;19;20520;-69
2023/03/01 16:22:35;;;;;;;21.50;8.38;;;;;;;;;;12818286;19;20048;-68
2023/03/01 16:27:39;;;;;;;22.75;8.98;;;;;;;;;;12825057;19;20843;-69
2023/03/01 16:44:01;;;;;;;23.15;8.60;;;;;;;;;;12823215;19;20392;-68
2023/03/01 17:01:40;;;;;;;284.48;74.07;;;;;;;;;;12814525;19;20480;-68
2023/03/01 17:12:15;;;;;;;38.53;15.05;;;;;;;;;;12798728;19;20624;-67
2023/03/01 17:17:02;;;;;;;48.72;17.35;;;;;;;;;;12815496;19;20337;-68
2023/03/01 17:27:47;;;;;;;57.65;21.23;;;;;;;;;;12814390;19;20556;-68
2023/03/01 17:32:34;;;;;;;47.90;19.90;;;;;;;;;;12814921;19;20434;-67
2023/03/01 17:37:12;;;;;;;86.18;32.50;;;;;;;;;;12816665;19;20342;-68
2023/03/01 17:48:13;;;;;;;184.52;65.00;;;;;;;;;;12712721;19;2004969;-68
2023/03/01 17:52:52;;;;;;;95.88;42.75;;;;;;;;;;12815054;19;20531;-67
2023/03/01 18:03:43;;;;;;;72.68;29.30;;;;;;;;;;12816281;19;20321;-68
2023/03/01 18:08:09;;;;;;;105.93;35.25;;;;;;;;;;12817073;19;20027;-67
2023/03/01 18:13:48;;;;;;;239.63;58.08;;;;;;;;;;12815123;19;20358;-68
2023/03/01 18:19:36;;;;;;;357.02;85.70;;;;;;;;;;12817293;19;20363;-67
2023/03/01 18:24:42;;;;;;;94.07;36.55;;;;;;;;;;12811351;19;20320;-68
2023/03/01 18:29:35;;;;;;;232.05;60.63;;;;;;;;;;12816938;19;20437;-68
2023/03/01 18:40:55;;;;;;;168.90;46.75;;;;;;;;;;12708567;19;2006224;-68
2023/03/01 18:45:55;;;;;;;137.15;44.65;;;;;;;;;;12810976;19;20559;-67
2023/03/01 18:50:17;;;;;;;81.93;32.78;;;;;;;;;;12811545;19;20788;-67
2023/03/01 18:54:51;;;;;;;125.38;41.53;;;;;;;;;;12809384;19;20394;-68
2023/03/01 18:59:35;;;;;;;115.72;39.97;;;;;;;;;;12818527;19;21344;-68
2023/03/01 19:04:33;;;;;;;108.55;39.05;;;;;;;;;;12818150;19;20018;-68
2023/03/01 19:10:17;;;;;;;121.22;38.92;;;;;;;;;;12816542;19;20006;-68
2023/03/01 19:16:34;;;;;;;88.93;34.15;;;;;;;;;;12806847;19;20535;-68
2023/03/01 19:21:35;;;;;;;102.47;39.35;;;;;;;;;;12807894;19;20030;-69
2023/03/01 19:32:45;;;;;;;103.75;39.30;;;;;;;;;;12820571;19;20525;-69
2023/03/01 19:37:41;;;;;;;116.00;44.55;;;;;;;;;;12820062;19;20401;-68
2023/03/01 19:42:05;;;;;;;115.18;48.85;;;;;;;;;;12819858;19;20494;-68
2023/03/01 19:46:33;;;;;;;128.45;59.10;;;;;;;;;;12822061;19;20334;-68
2023/03/01 19:51:11;;;;;;;110.63;50.47;;;;;;;;;;12824077;19;20394;-68
2023/03/01 19:56:38;;;;;;;150.65;51.80;;;;;;;;;;12823783;19;20368;-68
2023/03/01 20:01:41;;;;;;;98.30;38.00;;;;;;;;;;12824681;19;20440;-68
2023/03/01 20:12:38;;;;;;;101.55;40.03;;;;;;;;;;12825592;19;20468;-67
2023/03/01 20:17:37;;;;;;;100.60;37.33;;;;;;;;;;12825863;19;20010;-68
2023/03/01 20:22:13;;;;;;;157.30;65.00;;;;;;;;;;12826167;19;20434;-68
2023/03/01 20:33:33;;;;;;;235.02;93.63;;;;;;;;;;12722559;19;2005107;-67
2023/03/01 20:38:08;;;;;;;133.65;49.70;;;;;;;;;;12820521;19;20318;-68
2023/03/01 20:48:35;;;;;;;200.13;78.93;;;;;;;;;;12816878;19;20323;-67
2023/03/01 20:53:31;;;;;;;205.93;76.95;;;;;;;;;;12819789;19;20100;-68
2023/03/01 21:03:55;;;;;;;151.88;56.38;;;;;;;;;;12715348;19;2005838;-68
2023/03/01 21:08:37;;;;;;;144.25;53.55;;;;;;;;;;12813750;19;20478;-68
2023/03/01 21:19:44;;;;;;;181.25;52.97;;;;;;;;;;12814384;19;20355;-67
2023/03/01 21:24:34;;;;;;;250.90;90.20;;;;;;;;;;12814506;19;20581;-68
2023/03/01 21:29:10;;;;;;;124.00;46.80;;;;;;;;;;12814418;19;20006;-67
2023/03/01 21:39:11;;;;;;;349.50;92.60;;;;;;;;;;12816513;19;20441;-67
2023/03/01 21:44:12;;;;;;;121.35;41.17;;;;;;;;;;12813220;19;20418;-67
2023/03/01 22:00:16;;;;;;;96.82;40.80;;;;;;;;;;12811073;19;20302;-68
2023/03/01 22:05:39;;;;;;;107.65;45.67;;;;;;;;;;12817603;19;20338;-67
2023/03/01 22:10:54;;;;;;;121.97;46.20;;;;;;;;;;12820503;19;20469;-67
2023/03/01 22:15:56;;;;;;;211.93;86.15;;;;;;;;;;12816254;19;20312;-67
2023/03/01 22:20:33;;;;;;;148.57;56.10;;;;;;;;;;12817812;19;20480;-67
2023/03/01 22:31:08;;;;;;;;;;;;;;;;;;12710218;19;2004797;-67
2023/03/01 22:36:45;;;;;;;116.65;48.25;;;;;;;;;;12814378;19;20282;-67
2023/03/01 22:47:15;;;;;;;88.87;37.10;;;;;;;;;;12808395;19;20408;-67
2023/03/01 22:51:53;;;;;;;114.65;43.15;;;;;;;;;;12810754;19;20480;-67
2023/03/01 22:57:28;;;;;;;107.57;42.70;;;;;;;;;;12813029;19;20387;-68
2023/03/01 23:03:03;;;;;;;92.30;41.17;;;;;;;;;;12828601;19;20010;-67
2023/03/01 23:07:45;;;;;;;83.32;33.60;;;;;;;;;;12826082;19;20444;-67
2023/03/01 23:18:45;;;;;;;66.88;28.23;;;;;;;;;;12824480;19;20023;-67
2023/03/01 23:23:32;;;;;;;81.60;32.67;;;;;;;;;;12826399;19;20010;-68
2023/03/01 23:34:57;;;;;;;76.85;30.75;;;;;;;;;;12820348;19;20851;-67
2023/03/01 23:39:43;;;;;;;76.38;27.35;;;;;;;;;;12826931;19;20309;-67
2023/03/01 23:50:47;;;;;;;89.55;30.92;;;;;;;;;;12820600;19;20341;-68
2023/03/01 23:55:58;;;;;;;80.32;28.63;;;;;;;;;;12819630;19;20326;-67
